createdAt,value
2023-05-07T08:05:59.340Z,66.23
2023-05-07T08:08:28.503Z,63.89
2023-05-07T08:10:57.570Z,62.97
2023-05-07T08:13:32.376Z,62.70
2023-05-07T08:16:02.333Z,61.44
2023-05-07T08:18:31.767Z,61.72
2023-05-07T08:21:05.408Z,60.64
2023-05-07T08:23:35.600Z,61.61
2023-05-07T08:26:06.273Z,61.21
2023-05-07T08:28:35.148Z,59.40
2023-05-07T08:31:03.997Z,60.04
2023-05-07T08:33:38.351Z,59.11
2023-05-07T08:36:09.709Z,57.70
2023-05-07T08:38:41.830Z,56.91
2023-05-07T08:41:12.477Z,56.75
2023-05-07T08:43:44.240Z,56.12
2023-05-07T08:46:14.525Z,56.32
2023-05-07T08:48:47.033Z,55.27
2023-05-07T08:51:20.586Z,55.66
2023-05-07T08:53:52.052Z,54.34
2023-05-07T08:56:27.986Z,53.75
2023-05-07T08:59:00.427Z,53.59
2023-05-07T09:01:31.561Z,54.06
2023-05-07T09:04:00.674Z,54.21
2023-05-07T09:06:32.987Z,53.87
2023-05-07T09:09:07.000Z,53.25
2023-05-07T09:11:36.293Z,53.08
2023-05-07T09:14:06.184Z,52.47
2023-05-07T09:16:41.446Z,52.32
2023-05-07T09:19:11.272Z,52.64
2023-05-07T09:21:46.983Z,52.34
2023-05-07T09:24:18.309Z,53.00
2023-05-07T09:26:47.667Z,52.07
2023-05-07T09:29:18.939Z,52.28
2023-05-07T09:31:48.544Z,51.06
2023-05-07T09:34:19.477Z,50.50
2023-05-07T09:36:52.151Z,50.77
2023-05-07T09:39:22.067Z,49.75
2023-05-07T09:41:52.752Z,49.29
2023-05-07T09:44:27.953Z,50.28
2023-05-07T09:46:57.507Z,50.53
2023-05-07T09:49:37.028Z,50.81
2023-05-07T09:52:12.612Z,50.35
2023-05-07T09:54:49.642Z,49.66
2023-05-07T09:57:22.874Z,50.01
2023-05-07T09:59:59.232Z,49.90
2023-05-07T10:02:33.616Z,49.35
2023-05-07T10:05:04.170Z,49.38
2023-05-07T10:07:38.314Z,49.32
2023-05-07T10:10:13.236Z,49.42
2023-05-07T10:12:46.136Z,48.76
2023-05-07T10:15:21.372Z,49.28
2023-05-07T10:17:56.342Z,49.37
2023-05-07T10:20:28.352Z,49.04
2023-05-07T10:23:01.500Z,49.15
2023-05-07T10:25:38.596Z,49.50
2023-05-07T10:28:16.162Z,49.22
2023-05-07T10:31:02.313Z,48.97
2023-05-07T10:33:40.273Z,49.37
2023-05-07T10:36:10.766Z,49.62
2023-05-07T10:38:42.097Z,49.69
2023-05-07T10:41:13.497Z,49.13
2023-05-07T10:43:48.167Z,49.07
2023-05-07T10:46:27.878Z,49.37
2023-05-07T10:49:12.693Z,48.90
2023-05-07T10:52:17.159Z,48.02
2023-05-07T10:55:23.148Z,47.03
2023-05-07T11:00:59.373Z,46.85
2023-05-07T11:03:33.729Z,47.38
2023-05-07T11:06:14.798Z,46.94
2023-05-07T11:08:58.421Z,46.95
2023-05-07T11:11:48.551Z,46.54
2023-05-07T11:14:51.079Z,46.43
2023-05-07T11:17:28.368Z,45.77
2023-05-07T11:20:05.842Z,46.04
2023-05-07T11:22:48.747Z,45.95
2023-05-07T11:25:25.811Z,45.59
2023-05-07T11:28:12.011Z,45.55
2023-05-07T11:30:49.658Z,45.92
2023-05-07T11:33:24.389Z,46.12
2023-05-07T11:35:55.968Z,45.96
2023-05-07T11:38:29.605Z,45.81
2023-05-07T11:41:00.071Z,45.74
2023-05-07T11:43:29.447Z,45.72
2023-05-07T11:46:08.244Z,45.47
2023-05-07T11:48:38.946Z,45.05
2023-05-07T11:51:10.294Z,44.70
2023-05-07T11:53:40.652Z,44.15
2023-05-07T11:56:10.207Z,43.85
2023-05-07T11:58:39.162Z,43.82
2023-05-07T12:01:10.503Z,42.99
2023-05-07T12:03:45.016Z,43.84
2023-05-07T12:06:15.109Z,43.36
2023-05-07T12:08:47.055Z,43.37
2023-05-07T12:11:19.731Z,43.26
2023-05-07T12:13:48.573Z,42.75
2023-05-07T12:16:18.210Z,42.88
2023-05-07T12:18:49.428Z,43.33
2023-05-07T12:21:18.985Z,43.00
2023-05-07T12:23:47.590Z,43.40
2023-05-07T12:26:16.588Z,43.97
2023-05-07T12:28:45.902Z,43.73
2023-05-07T12:31:17.376Z,43.61
2023-05-07T12:33:48.145Z,43.74
2023-05-07T12:36:17.660Z,44.04
2023-05-07T12:38:46.416Z,43.10
2023-05-07T12:41:15.243Z,43.22
2023-05-07T12:43:47.215Z,43.33
2023-05-07T12:46:18.510Z,43.28
2023-05-07T12:48:49.100Z,43.30
2023-05-07T12:51:19.570Z,43.51
2023-05-07T12:53:48.515Z,43.63
2023-05-07T12:56:19.072Z,43.26
2023-05-07T12:58:47.755Z,42.93
2023-05-07T13:01:20.490Z,42.98
2023-05-07T13:03:52.439Z,43.11
2023-05-07T13:06:21.365Z,43.07
2023-05-07T13:08:50.101Z,43.82
2023-05-07T13:11:18.911Z,44.30
2023-05-07T13:13:47.696Z,44.04
2023-05-07T13:16:16.617Z,44.44
2023-05-07T13:18:47.293Z,44.23
2023-05-07T13:21:17.630Z,44.37
2023-05-07T13:23:46.540Z,44.08
2023-05-07T13:26:26.240Z,44.98
2023-05-07T13:28:56.020Z,44.98
2023-05-07T13:31:25.378Z,44.87
2023-05-07T13:33:54.193Z,45.51
2023-05-07T13:36:24.656Z,46.06
2023-05-07T13:38:53.934Z,46.46
2023-05-07T13:41:23.222Z,46.37
2023-05-07T13:43:52.341Z,46.38
2023-05-07T13:46:21.422Z,46.01
2023-05-07T13:48:50.380Z,46.06
2023-05-07T13:51:19.423Z,46.23
2023-05-07T13:53:49.613Z,45.92
2023-05-07T13:56:18.563Z,46.54
2023-05-07T13:58:59.009Z,46.63
2023-05-07T14:01:30.084Z,47.15
2023-05-07T14:04:00.886Z,47.25
2023-05-07T14:06:30.223Z,47.25
2023-05-07T14:09:01.484Z,46.80
2023-05-07T14:11:30.480Z,47.49
2023-05-07T14:13:59.587Z,48.14
2023-05-07T14:16:28.673Z,48.47
2023-05-07T14:18:58.855Z,48.59
2023-05-07T14:21:27.662Z,48.57
2023-05-07T14:23:57.838Z,49.28
2023-05-07T14:26:29.083Z,48.66
2023-05-07T14:28:59.952Z,49.13
2023-05-07T14:31:29.124Z,48.96
2023-05-07T14:33:59.441Z,48.99
2023-05-07T14:36:28.383Z,48.71
2023-05-07T14:38:58.288Z,49.00
2023-05-07T14:41:28.751Z,49.09
2023-05-07T14:43:57.502Z,49.44
2023-05-07T14:46:26.157Z,49.30
2023-05-07T14:48:55.428Z,49.51
2023-05-07T14:51:24.822Z,48.65
2023-05-07T14:53:53.726Z,48.57
2023-05-07T14:56:22.715Z,48.38
2023-05-07T14:58:52.989Z,48.58
2023-05-07T15:01:23.059Z,48.64
2023-05-07T15:03:52.127Z,48.88
2023-05-07T15:06:20.903Z,48.74
2023-05-07T15:08:49.822Z,48.67
2023-05-07T15:11:20.003Z,48.56
2023-05-07T15:13:49.262Z,48.81
2023-05-07T15:16:20.743Z,48.57
2023-05-07T15:18:49.692Z,48.21
2023-05-07T15:21:19.220Z,47.92
2023-05-07T15:23:49.264Z,47.87
2023-05-07T15:26:18.234Z,48.03
2023-05-07T15:28:47.132Z,48.05
2023-05-07T15:31:15.723Z,48.23
2023-05-07T15:33:46.187Z,48.54
2023-05-07T15:36:14.985Z,48.94
2023-05-07T15:38:43.706Z,49.18
2023-05-07T15:41:12.609Z,49.72
2023-05-07T15:43:46.802Z,49.62
2023-05-07T15:46:20.837Z,49.74
2023-05-07T15:48:51.138Z,49.11
2023-05-07T15:51:20.888Z,49.09
2023-05-07T15:53:49.268Z,49.09
2023-05-07T15:56:17.946Z,49.18
2023-05-07T15:58:46.666Z,49.37
2023-05-07T16:01:15.758Z,49.57
2023-05-07T16:03:44.975Z,49.66
2023-05-07T16:06:15.372Z,49.68
2023-05-07T16:11:36.532Z,50.49
2023-05-07T16:14:05.274Z,50.50
2023-05-07T16:16:35.067Z,50.56
2023-05-07T16:19:04.053Z,50.95
2023-05-07T16:21:32.974Z,51.55
2023-05-07T16:24:01.938Z,51.54
2023-05-07T16:26:30.990Z,51.84
2023-05-07T16:29:02.207Z,51.51
2023-05-07T16:31:31.727Z,52.00
2023-05-07T16:34:01.228Z,52.77
2023-05-07T16:36:30.030Z,53.49
2023-05-07T16:38:58.947Z,53.78
2023-05-07T16:41:27.884Z,53.65
2023-05-07T16:43:57.938Z,54.42
2023-05-07T16:46:28.224Z,54.93
2023-05-07T16:48:57.520Z,54.73
2023-05-07T16:51:26.303Z,54.67
2023-05-07T16:53:55.190Z,54.84
2023-05-07T16:56:23.907Z,55.35
2023-05-07T16:58:52.727Z,55.28
2023-05-07T17:01:21.757Z,55.74
2023-05-07T17:03:52.149Z,55.50
2023-05-07T17:06:21.104Z,56.26
2023-05-07T17:08:51.701Z,56.42
2023-05-07T17:11:21.133Z,56.33
2023-05-07T17:13:50.537Z,56.60
2023-05-07T17:16:20.255Z,57.07
2023-05-07T17:18:49.204Z,56.74
2023-05-07T17:21:19.415Z,56.90
2023-05-07T17:23:48.285Z,57.42
2023-05-07T17:26:17.901Z,57.14
2023-05-07T17:28:46.424Z,57.26
2023-05-07T17:31:15.188Z,57.73
2023-05-07T17:33:43.904Z,57.46
2023-05-07T17:36:12.658Z,57.63
2023-05-07T17:38:43.045Z,57.90
2023-05-07T17:41:11.887Z,58.59
2023-05-07T17:43:40.678Z,58.55
2023-05-07T17:46:10.343Z,58.73
2023-05-07T17:48:39.290Z,58.70
2023-05-07T17:51:07.998Z,58.74
2023-05-07T17:53:36.955Z,59.14
2023-05-07T17:56:07.228Z,58.85
2023-05-07T17:58:45.458Z,59.36
2023-05-07T18:01:25.446Z,59.55
2023-05-07T18:03:54.738Z,59.30
2023-05-07T18:06:24.266Z,59.35
2023-05-07T18:08:54.721Z,59.56
2023-05-07T18:11:25.443Z,59.53
2023-05-07T18:13:54.239Z,60.02
2023-05-07T18:16:23.064Z,60.21
2023-05-07T18:18:52.150Z,60.00
2023-05-07T18:21:21.373Z,60.25
2023-05-07T18:23:51.704Z,59.92
2023-05-07T18:26:20.502Z,60.40
2023-05-07T18:28:50.630Z,60.49
2023-05-07T18:31:20.913Z,60.46
2023-05-07T18:33:52.272Z,60.68
2023-05-07T18:36:21.171Z,60.76
2023-05-07T18:38:49.940Z,60.74
2023-05-07T18:41:18.832Z,61.17
2023-05-07T18:43:48.306Z,61.39
2023-05-07T18:46:18.720Z,61.24
2023-05-07T18:48:47.571Z,61.41
2023-05-07T18:51:16.577Z,61.53
2023-05-07T18:53:45.334Z,61.75
2023-05-07T18:56:14.101Z,61.60
2023-05-07T18:58:42.892Z,61.92
2023-05-07T19:01:11.681Z,62.12
2023-05-07T19:03:41.904Z,62.24
2023-05-07T19:06:10.829Z,62.32
2023-05-07T19:08:39.575Z,62.51
2023-05-07T19:11:08.800Z,62.51
2023-05-07T19:13:37.553Z,62.65
2023-05-07T19:16:10.562Z,62.89
2023-05-07T19:18:40.202Z,62.79
2023-05-07T19:21:10.313Z,63.01
2023-05-07T19:23:42.205Z,63.03
2023-05-07T19:26:11.334Z,63.24
2023-05-07T19:28:45.360Z,63.14
2023-05-07T19:31:22.899Z,63.09
2023-05-07T19:33:51.734Z,63.04
2023-05-07T19:36:22.006Z,63.31
2023-05-07T19:38:53.449Z,63.10
2023-05-07T19:41:22.888Z,63.58
2023-05-07T19:43:51.719Z,63.36
2023-05-07T19:46:20.743Z,63.63
2023-05-07T19:48:49.607Z,64.00
2023-05-07T19:51:18.330Z,63.90
2023-05-07T19:53:48.578Z,63.86
2023-05-07T19:56:17.421Z,63.81
2023-05-07T19:58:46.176Z,64.00
2023-05-07T20:01:15.018Z,64.33
2023-05-07T20:03:43.878Z,64.19
2023-05-07T20:06:12.729Z,64.10
2023-05-07T20:08:43.738Z,64.49
2023-05-07T20:11:14.404Z,64.63
2023-05-07T20:13:43.436Z,64.71
2023-05-07T20:16:12.075Z,64.49
2023-05-07T20:18:41.144Z,64.71
2023-05-07T20:21:10.366Z,64.54
2023-05-07T20:23:39.139Z,64.88
2023-05-07T20:26:07.864Z,65.20
2023-05-07T20:28:38.235Z,65.57
2023-05-07T20:31:07.154Z,65.07
2023-05-07T20:33:35.919Z,64.89
2023-05-07T20:36:05.000Z,65.55
2023-05-07T20:38:34.799Z,65.56
2023-05-07T20:41:08.274Z,65.96
2023-05-07T20:43:38.969Z,65.65
2023-05-07T20:46:08.766Z,65.98
2023-05-07T20:48:37.571Z,66.03
2023-05-07T20:51:06.586Z,66.43
2023-05-07T20:53:37.779Z,66.68
2023-05-07T20:56:06.769Z,66.55
2023-05-07T20:58:35.516Z,66.49
2023-05-07T21:01:07.413Z,66.34
2023-05-07T21:03:36.340Z,66.66
2023-05-07T21:06:05.205Z,66.66
2023-05-07T21:08:34.389Z,66.42
2023-05-07T21:11:03.304Z,66.29
2023-05-07T21:13:32.292Z,66.45
2023-05-07T21:16:01.751Z,66.66
2023-05-07T21:18:32.173Z,66.42
2023-05-07T21:21:01.420Z,66.76
2023-05-07T21:23:30.192Z,67.28
2023-05-07T21:25:59.043Z,67.04
2023-05-07T21:28:27.784Z,67.14
2023-05-07T21:30:56.644Z,67.07
2023-05-07T21:33:25.336Z,66.58
2023-05-07T21:35:55.727Z,66.71
2023-05-07T21:38:24.520Z,66.66
2023-05-07T21:40:53.206Z,66.58
2023-05-07T21:43:22.454Z,67.04
2023-05-07T21:45:51.106Z,67.38
2023-05-07T21:48:22.257Z,67.12
2023-05-07T21:51:00.219Z,67.63
2023-05-07T21:53:30.882Z,67.83
2023-05-07T21:56:00.435Z,67.68
2023-05-07T21:58:31.069Z,66.88
2023-05-07T22:01:01.464Z,66.91
2023-05-07T22:03:30.512Z,67.22
2023-05-07T22:05:59.672Z,67.69
2023-05-07T22:08:30.878Z,67.23
2023-05-07T22:10:59.792Z,67.50
2023-05-07T22:13:28.563Z,67.04
2023-05-07T22:15:58.650Z,68.13
2023-05-07T22:18:27.744Z,67.82
2023-05-07T22:20:56.937Z,67.87
2023-05-07T22:23:25.749Z,68.03
2023-05-07T22:25:56.382Z,67.84
2023-05-07T22:28:25.354Z,68.15
2023-05-07T22:30:54.682Z,68.53
2023-05-07T22:33:23.461Z,68.08
2023-05-07T22:35:52.160Z,68.12
2023-05-07T22:38:21.104Z,67.83
2023-05-07T22:40:49.877Z,68.76
2023-05-07T22:43:20.970Z,67.88
2023-05-07T22:45:49.895Z,68.61
2023-05-07T22:48:18.740Z,68.43
2023-05-07T22:50:48.273Z,68.60
2023-05-07T22:53:16.955Z,68.41
2023-05-07T22:55:46.233Z,68.65
2023-05-07T22:58:14.959Z,68.58
2023-05-07T23:00:45.320Z,68.34
2023-05-07T23:03:14.493Z,68.17
2023-05-07T23:05:44.297Z,68.57
2023-05-07T23:08:13.461Z,69.41
2023-05-07T23:10:42.273Z,68.85
2023-05-07T23:13:17.554Z,69.22
2023-05-07T23:15:49.042Z,69.65
2023-05-07T23:18:18.056Z,70.19
2023-05-07T23:20:46.746Z,70.39
2023-05-07T23:23:15.663Z,69.96
2023-05-07T23:25:44.445Z,70.67
2023-05-07T23:28:13.646Z,70.10
2023-05-07T23:30:42.458Z,70.44
2023-05-07T23:33:12.657Z,70.31
2023-05-07T23:35:41.570Z,70.95
2023-05-07T23:38:10.327Z,71.01
2023-05-07T23:40:39.130Z,70.39
2023-05-07T23:43:07.863Z,70.34
2023-05-07T23:45:36.788Z,70.06
2023-05-07T23:48:05.831Z,70.44
2023-05-07T23:50:36.230Z,70.51
2023-05-07T23:53:05.075Z,70.66
2023-05-07T23:55:33.859Z,70.69
2023-05-07T23:58:02.889Z,70.82
